createdAt,value
2023-01-30T00:00:06.369Z,14.05
2023-01-30T00:02:35.792Z,14.07
2023-01-30T00:05:11.295Z,14.04
2023-01-30T00:07:40.418Z,14.11
2023-01-30T00:10:10.717Z,14.02
2023-01-30T00:12:40.718Z,14.02
2023-01-30T00:15:12.018Z,13.91
2023-01-30T00:17:41.439Z,14.06
2023-01-30T00:20:11.047Z,14.10
2023-01-30T00:22:49.308Z,13.95
2023-01-30T00:25:20.732Z,14.02
2023-01-30T00:27:49.504Z,14.06
2023-01-30T00:30:20.151Z,14.14
2023-01-30T00:32:49.694Z,14.17
2023-01-30T00:35:19.542Z,14.20
2023-01-30T00:37:50.136Z,14.17
2023-01-30T00:40:21.058Z,14.18
2023-01-30T00:43:21.565Z,14.17
2023-01-30T00:46:07.412Z,13.94
2023-01-30T00:48:36.949Z,14.08
2023-01-30T00:51:05.854Z,14.06
2023-01-30T00:53:36.177Z,14.04
2023-01-30T00:56:04.348Z,14.13
2023-01-30T00:58:33.751Z,13.95
2023-01-30T01:01:01.845Z,13.95
2023-01-30T01:03:32.405Z,13.95
2023-01-30T01:06:04.519Z,13.99
2023-01-30T01:08:33.084Z,14.04
2023-01-30T01:11:01.061Z,13.96
2023-01-30T01:13:29.237Z,14.01
2023-01-30T01:15:57.289Z,13.99
2023-01-30T01:18:25.431Z,13.77
2023-01-30T01:20:53.373Z,13.92
2023-01-30T01:23:22.881Z,13.96
2023-01-30T01:25:51.274Z,13.94
2023-01-30T01:28:22.275Z,13.98
2023-01-30T01:30:50.487Z,13.98
2023-01-30T01:33:18.722Z,13.85
2023-01-30T01:35:47.710Z,13.94
2023-01-30T01:38:17.218Z,13.99
2023-01-30T01:41:02.493Z,14.01
2023-01-30T01:43:34.400Z,14.03
2023-01-30T01:46:04.093Z,14.02
2023-01-30T01:48:33.695Z,14.06
2023-01-30T01:51:04.366Z,13.96
2023-01-30T01:53:35.078Z,13.99
2023-01-30T01:56:04.775Z,14.01
2023-01-30T01:58:35.562Z,14.03
2023-01-30T02:01:03.760Z,14.09
2023-01-30T02:03:36.323Z,14.06
2023-01-30T02:06:04.636Z,14.00
2023-01-30T02:08:34.791Z,14.01
2023-01-30T02:11:09.776Z,14.04
2023-01-30T02:13:38.553Z,13.99
2023-01-30T02:16:07.648Z,14.04
2023-01-30T02:18:36.325Z,14.04
2023-01-30T02:21:45.768Z,14.10
2023-01-30T02:24:35.232Z,14.06
2023-01-30T02:27:40.272Z,14.10
2023-01-30T02:30:38.595Z,14.09
2023-01-30T02:33:11.705Z,14.05
2023-01-30T02:35:43.801Z,14.12
2023-01-30T02:38:19.974Z,14.21
2023-01-30T02:40:55.646Z,14.19
2023-01-30T02:43:27.627Z,14.18
2023-01-30T02:46:08.759Z,14.21
2023-01-30T02:48:39.096Z,14.10
2023-01-30T02:51:08.924Z,14.08
2023-01-30T02:53:37.605Z,14.21
2023-01-30T02:56:07.639Z,14.17
2023-01-30T02:58:37.310Z,14.23
2023-01-30T03:01:32.474Z,14.17
2023-01-30T03:04:27.427Z,14.24
2023-01-30T03:07:07.694Z,14.27
2023-01-30T03:09:40.218Z,14.22
2023-01-30T03:12:10.312Z,14.06
2023-01-30T03:14:42.182Z,14.20
2023-01-30T03:17:12.200Z,14.13
2023-01-30T03:19:40.391Z,14.00
2023-01-30T03:22:08.386Z,14.11
2023-01-30T03:24:36.416Z,14.14
2023-01-30T03:27:06.984Z,14.11
2023-01-30T03:29:35.233Z,14.04
2023-01-30T03:32:03.168Z,14.12
2023-01-30T03:34:33.017Z,14.11
2023-01-30T03:37:01.084Z,14.05
2023-01-30T03:39:29.132Z,14.10
2023-01-30T03:41:57.223Z,14.13
2023-01-30T03:44:28.596Z,14.08
2023-01-30T03:46:56.785Z,14.13
2023-01-30T03:49:26.155Z,14.09
2023-01-30T03:51:55.662Z,13.88
2023-01-30T03:54:23.793Z,13.82
2023-01-30T03:56:51.880Z,13.62
2023-01-30T03:59:20.195Z,13.63
2023-01-30T04:01:54.504Z,13.37
2023-01-30T04:04:26.392Z,13.45
2023-01-30T04:06:55.825Z,13.40
2023-01-30T04:09:28.122Z,13.33
2023-01-30T04:11:57.051Z,13.40
2023-01-30T04:14:26.390Z,13.36
2023-01-30T04:17:13.095Z,13.35
2023-01-30T04:20:18.352Z,13.34
2023-01-30T04:22:52.482Z,13.32
2023-01-30T04:25:21.375Z,13.25
2023-01-30T04:27:52.396Z,13.13
2023-01-30T04:30:25.022Z,13.03
2023-01-30T04:32:59.097Z,13.02
2023-01-30T04:35:27.379Z,12.97
2023-01-30T04:38:00.258Z,12.90
2023-01-30T04:40:29.100Z,12.86
2023-01-30T04:42:58.066Z,12.79
2023-01-30T04:45:46.331Z,12.75
2023-01-30T04:48:14.633Z,12.77
2023-01-30T04:50:44.357Z,12.76
2023-01-30T04:53:15.083Z,12.78
2023-01-30T04:55:43.577Z,12.76
2023-01-30T04:58:11.531Z,12.77
2023-01-30T05:00:39.829Z,12.65
2023-01-30T05:03:10.134Z,12.70
2023-01-30T05:05:38.136Z,12.74
2023-01-30T05:08:12.591Z,12.74
2023-01-30T05:10:44.082Z,12.73
2023-01-30T05:13:12.101Z,12.74
2023-01-30T05:15:42.746Z,12.73
2023-01-30T05:18:10.715Z,12.68
2023-01-30T05:20:39.820Z,12.70
2023-01-30T05:23:08.137Z,12.69
2023-01-30T05:25:36.706Z,12.64
2023-01-30T05:28:06.342Z,12.69
2023-01-30T05:30:34.568Z,12.79
2023-01-30T05:33:02.621Z,12.76
2023-01-30T05:35:30.792Z,12.80
2023-01-30T05:37:59.520Z,12.74
2023-01-30T05:40:29.086Z,12.74
2023-01-30T05:42:57.120Z,12.71
2023-01-30T05:45:26.812Z,12.73
2023-01-30T05:47:58.445Z,12.70
2023-01-30T05:50:28.772Z,12.68
2023-01-30T05:52:56.734Z,12.68
2023-01-30T05:55:24.786Z,12.67
2023-01-30T05:57:56.715Z,12.49
2023-01-30T06:00:28.380Z,12.64
2023-01-30T06:02:56.868Z,12.69
2023-01-30T06:05:25.146Z,12.69
2023-01-30T06:08:00.762Z,12.60
2023-01-30T06:10:28.777Z,12.67
2023-01-30T06:12:56.795Z,12.68
2023-01-30T06:15:26.859Z,12.56
2023-01-30T06:17:56.142Z,12.63
2023-01-30T06:20:25.589Z,12.58
2023-01-30T06:22:53.554Z,12.67
2023-01-30T06:25:21.624Z,12.63
2023-01-30T06:27:49.605Z,12.61
2023-01-30T06:30:18.285Z,12.57
2023-01-30T06:32:51.377Z,12.51
2023-01-30T06:35:19.708Z,12.39
2023-01-30T06:37:47.976Z,12.49
2023-01-30T06:40:16.118Z,12.54
2023-01-30T06:42:54.475Z,12.54
2023-01-30T06:45:22.534Z,12.51
2023-01-30T06:47:53.062Z,12.44
2023-01-30T06:50:23.323Z,12.38
2023-01-30T06:52:51.732Z,12.26
2023-01-30T06:55:21.202Z,12.18
2023-01-30T06:57:49.544Z,11.89
2023-01-30T07:00:18.701Z,12.00
2023-01-30T07:02:47.057Z,11.94
2023-01-30T07:05:16.992Z,11.88
2023-01-30T07:07:45.229Z,11.85
2023-01-30T07:10:13.162Z,11.69
2023-01-30T07:12:43.246Z,11.80
2023-01-30T07:15:12.781Z,11.75
2023-01-30T07:17:41.346Z,11.64
2023-01-30T07:20:11.443Z,11.52
2023-01-30T07:22:40.966Z,11.47
2023-01-30T07:25:09.629Z,11.48
2023-01-30T07:27:39.571Z,11.52
2023-01-30T07:30:08.529Z,11.52
2023-01-30T07:32:36.451Z,11.42
2023-01-30T07:35:06.003Z,11.48
2023-01-30T07:37:34.193Z,11.57
2023-01-30T07:40:03.637Z,11.59
2023-01-30T07:42:31.659Z,11.62
2023-01-30T07:44:59.695Z,11.61
2023-01-30T07:47:27.716Z,11.71
2023-01-30T07:49:55.681Z,11.73
2023-01-30T07:52:31.129Z,11.78
2023-01-30T07:55:01.686Z,11.83
2023-01-30T07:57:33.650Z,11.86
2023-01-30T08:00:03.241Z,11.92
2023-01-30T08:02:51.202Z,11.94
2023-01-30T08:05:19.602Z,12.01
2023-01-30T08:07:48.637Z,11.99
2023-01-30T08:10:17.513Z,12.03
2023-01-30T08:12:50.857Z,12.05
2023-01-30T08:15:20.651Z,11.88
2023-01-30T08:17:56.719Z,12.05
2023-01-30T08:20:24.870Z,12.00
2023-01-30T08:22:52.807Z,11.98
2023-01-30T08:25:21.016Z,11.98
2023-01-30T08:27:50.434Z,11.94
2023-01-30T08:30:19.868Z,11.91
2023-01-30T08:32:48.148Z,11.78
2023-01-30T08:35:18.524Z,11.91
2023-01-30T08:37:48.876Z,11.91
2023-01-30T08:40:17.527Z,11.92
2023-01-30T08:42:46.611Z,11.89
2023-01-30T08:45:16.396Z,11.88
2023-01-30T08:47:47.574Z,11.93
2023-01-30T08:50:17.838Z,11.95
2023-01-30T08:52:46.824Z,12.00
2023-01-30T08:55:14.869Z,12.01
2023-01-30T08:57:42.971Z,12.02
2023-01-30T09:00:13.119Z,12.03
2023-01-30T09:02:49.992Z,11.89
2023-01-30T09:05:18.112Z,12.05
2023-01-30T09:07:47.629Z,12.10
2023-01-30T09:10:18.328Z,12.08
2023-01-30T09:12:47.820Z,12.07
2023-01-30T09:15:15.749Z,12.16
2023-01-30T09:17:45.399Z,12.09
2023-01-30T09:20:13.745Z,12.20
2023-01-30T09:22:41.699Z,12.26
2023-01-30T09:25:10.594Z,12.26
2023-01-30T09:27:38.555Z,12.23
2023-01-30T09:30:07.905Z,12.31
2023-01-30T09:32:37.603Z,12.30
2023-01-30T09:35:09.986Z,12.22
2023-01-30T09:37:45.056Z,12.33
2023-01-30T09:40:16.156Z,12.32
2023-01-30T09:43:02.836Z,12.38
2023-01-30T09:45:52.002Z,12.46
2023-01-30T09:48:24.919Z,12.52
2023-01-30T09:51:16.225Z,12.60
2023-01-30T09:54:01.231Z,12.69
2023-01-30T09:56:29.689Z,12.80
2023-01-30T09:58:58.843Z,12.83
2023-01-30T10:01:31.629Z,13.00
2023-01-30T10:04:06.575Z,12.99
2023-01-30T10:06:38.084Z,13.00
2023-01-30T10:09:09.370Z,13.08
2023-01-30T10:11:45.218Z,13.08
2023-01-30T10:14:20.768Z,13.08
2023-01-30T10:16:55.077Z,13.06
2023-01-30T10:19:44.227Z,13.12
2023-01-30T10:22:19.066Z,13.12
2023-01-30T10:24:53.034Z,13.06
2023-01-30T10:27:22.126Z,13.24
2023-01-30T10:29:56.389Z,13.28
2023-01-30T10:32:34.191Z,13.40
2023-01-30T10:35:07.063Z,13.34
2023-01-30T10:37:48.224Z,13.44
2023-01-30T10:40:20.006Z,13.36
2023-01-30T10:42:52.271Z,13.29
2023-01-30T10:45:29.001Z,13.24
2023-01-30T10:48:02.183Z,13.25
2023-01-30T10:50:38.185Z,13.26
2023-01-30T10:53:15.147Z,13.21
2023-01-30T10:55:48.120Z,13.23
2023-01-30T10:58:20.786Z,13.20
2023-01-30T11:00:50.839Z,13.21
2023-01-30T11:03:22.710Z,13.21
2023-01-30T11:05:51.708Z,13.23
2023-01-30T11:08:30.417Z,13.27
2023-01-30T11:11:01.430Z,13.15
2023-01-30T11:13:36.485Z,13.24
2023-01-30T11:16:08.458Z,13.32
2023-01-30T11:21:43.838Z,13.35
2023-01-30T11:24:17.798Z,13.24
2023-01-30T11:27:01.465Z,13.42
2023-01-30T11:29:32.929Z,13.49
2023-01-30T11:32:03.955Z,13.56
2023-01-30T11:34:32.299Z,13.52
2023-01-30T11:37:17.307Z,13.58
2023-01-30T11:39:52.630Z,13.50
2023-01-30T11:42:23.289Z,13.44
2023-01-30T11:45:17.610Z,13.49
2023-01-30T11:47:57.618Z,13.51
2023-01-30T11:50:33.352Z,13.69
2023-01-30T11:53:05.010Z,13.71
2023-01-30T11:55:37.492Z,13.67
2023-01-30T11:58:07.527Z,13.78
2023-01-30T12:00:39.638Z,13.81
2023-01-30T12:03:11.854Z,13.75
2023-01-30T12:05:42.965Z,13.76
2023-01-30T12:08:14.637Z,13.89
2023-01-30T12:10:47.599Z,13.85
2023-01-30T12:13:19.188Z,13.85
2023-01-30T12:15:49.776Z,14.00
2023-01-30T12:18:20.179Z,14.05
2023-01-30T12:20:50.744Z,14.10
2023-01-30T12:23:22.481Z,13.98
2023-01-30T12:26:01.292Z,14.06
2023-01-30T12:28:42.523Z,14.12
2023-01-30T12:31:16.453Z,14.05
2023-01-30T12:33:44.413Z,14.03
2023-01-30T12:36:20.313Z,14.04
2023-01-30T12:38:59.201Z,13.91
2023-01-30T12:42:04.623Z,13.95
2023-01-30T12:44:40.389Z,13.95
2023-01-30T12:47:20.961Z,13.97
2023-01-30T12:49:59.750Z,14.01
2023-01-30T12:52:57.589Z,14.03
2023-01-30T12:55:36.770Z,13.97
2023-01-30T12:58:08.283Z,13.87
2023-01-30T13:00:47.673Z,13.82
2023-01-30T13:03:24.062Z,13.96
2023-01-30T13:05:57.917Z,14.04
2023-01-30T13:08:47.831Z,14.10
2023-01-30T13:11:29.088Z,13.92
2023-01-30T13:14:07.594Z,14.13
2023-01-30T13:16:47.220Z,13.92
2023-01-30T13:19:21.138Z,14.02
2023-01-30T13:21:54.964Z,13.94
2023-01-30T13:24:26.717Z,13.97
2023-01-30T13:26:55.809Z,14.15
2023-01-30T13:29:31.037Z,14.18
2023-01-30T13:32:14.290Z,14.07
2023-01-30T13:38:03.740Z,14.12
2023-01-30T13:40:36.526Z,14.11
2023-01-30T13:43:36.532Z,14.14
2023-01-30T13:46:10.023Z,14.04
2023-01-30T13:48:50.125Z,14.11
2023-01-30T13:51:48.896Z,14.20
2023-01-30T13:54:50.283Z,14.07
2023-01-30T13:57:27.325Z,14.04
2023-01-30T14:00:11.428Z,14.04
2023-01-30T14:03:25.254Z,14.20
2023-01-30T14:06:10.486Z,14.15
2023-01-30T14:08:51.729Z,14.14
2023-01-30T14:15:58.970Z,14.19
2023-01-30T14:18:31.376Z,14.20
2023-01-30T14:21:15.710Z,14.17
2023-01-30T14:23:49.157Z,14.28
2023-01-30T14:26:19.043Z,14.35
2023-01-30T14:28:47.710Z,14.27
2023-01-30T14:31:56.155Z,14.40
2023-01-30T14:35:01.130Z,14.40
2023-01-30T14:37:50.216Z,14.36
2023-01-30T14:41:14.241Z,14.20
2023-01-30T14:43:52.788Z,14.07
2023-01-30T14:46:55.031Z,14.20
2023-01-30T14:49:30.271Z,14.16
2023-01-30T14:52:00.763Z,14.22
2023-01-30T14:54:41.315Z,14.26
2023-01-30T15:00:15.589Z,14.28
2023-01-30T15:02:45.261Z,14.21
2023-01-30T15:05:15.434Z,14.16
2023-01-30T15:07:47.176Z,14.24
2023-01-30T15:10:29.609Z,14.19
2023-01-30T15:13:34.812Z,14.17
2023-01-30T15:16:10.633Z,14.17
2023-01-30T15:18:53.734Z,14.23
2023-01-30T15:21:56.676Z,14.27
2023-01-30T15:24:53.449Z,14.30
2023-01-30T15:27:23.895Z,14.23
2023-01-30T15:30:24.264Z,14.16
2023-01-30T15:33:29.891Z,14.27
2023-01-30T15:35:59.485Z,14.25
2023-01-30T15:38:29.867Z,14.24
2023-01-30T15:41:02.219Z,14.19
2023-01-30T15:43:45.502Z,14.15
2023-01-30T15:46:20.564Z,13.91
2023-01-30T15:48:56.548Z,13.95
2023-01-30T15:51:31.016Z,13.89
2023-01-30T15:54:02.554Z,13.85
2023-01-30T15:56:38.244Z,13.90
2023-01-30T15:59:07.096Z,13.81
2023-01-30T16:01:35.934Z,13.83
2023-01-30T16:04:08.485Z,13.78
2023-01-30T16:06:38.250Z,13.82
2023-01-30T16:09:19.594Z,13.81
2023-01-30T16:11:50.600Z,13.81
2023-01-30T16:14:20.181Z,13.81
2023-01-30T16:16:50.216Z,13.80
2023-01-30T16:19:22.971Z,13.69
2023-01-30T16:21:51.052Z,13.69
2023-01-30T16:24:19.406Z,13.63
2023-01-30T16:26:49.746Z,13.62
2023-01-30T16:29:18.467Z,13.56
2023-01-30T16:31:47.404Z,13.54
2023-01-30T16:34:32.786Z,13.52
2023-01-30T16:37:04.189Z,13.47
2023-01-30T16:39:33.239Z,13.39
2023-01-30T16:42:03.023Z,13.36
2023-01-30T16:44:31.686Z,13.28
2023-01-30T16:47:03.960Z,13.20
2023-01-30T16:49:47.291Z,13.17
2023-01-30T16:52:18.778Z,13.10
2023-01-30T16:54:47.970Z,13.00
2023-01-30T16:57:28.687Z,12.90
2023-01-30T16:59:56.707Z,12.86
2023-01-30T17:02:26.561Z,12.78
2023-01-30T17:04:54.516Z,12.77
2023-01-30T17:07:36.062Z,12.71
2023-01-30T17:10:04.207Z,12.61
2023-01-30T17:12:48.406Z,12.58
2023-01-30T17:15:36.392Z,12.53
2023-01-30T17:18:04.585Z,12.49
2023-01-30T17:20:45.479Z,12.46
2023-01-30T17:23:13.415Z,12.48
2023-01-30T17:25:43.012Z,12.40
2023-01-30T17:28:16.469Z,12.41
2023-01-30T17:30:44.440Z,12.39
2023-01-30T17:33:12.376Z,12.33
2023-01-30T17:35:40.491Z,12.33
2023-01-30T17:38:08.421Z,12.26
2023-01-30T17:40:37.604Z,12.26
2023-01-30T17:43:05.647Z,12.24
2023-01-30T17:45:34.960Z,12.23
2023-01-30T17:48:03.002Z,12.21
2023-01-30T17:50:32.602Z,12.19
2023-01-30T17:53:00.736Z,12.23
2023-01-30T17:55:28.716Z,12.27
2023-01-30T17:57:56.657Z,12.27
2023-01-30T18:00:25.125Z,12.20
2023-01-30T18:02:54.635Z,12.23
2023-01-30T18:05:23.029Z,12.19
2023-01-30T18:07:51.080Z,12.16
2023-01-30T18:10:20.722Z,12.10
2023-01-30T18:12:49.013Z,12.08
2023-01-30T18:15:17.296Z,12.08
2023-01-30T18:17:47.432Z,12.05
2023-01-30T18:20:18.749Z,12.02
2023-01-30T18:22:46.886Z,11.97
2023-01-30T18:25:14.921Z,11.94
2023-01-30T18:27:43.940Z,11.97
2023-01-30T18:30:15.877Z,11.98
2023-01-30T18:32:52.553Z,12.02
2023-01-30T18:35:23.237Z,11.99
2023-01-30T18:37:51.306Z,12.01
2023-01-30T18:40:19.951Z,12.01
2023-01-30T18:42:48.199Z,11.97
2023-01-30T18:45:16.219Z,11.95
2023-01-30T18:47:44.244Z,12.08
2023-01-30T18:50:12.498Z,12.15
2023-01-30T18:52:41.909Z,12.20
2023-01-30T18:55:10.423Z,12.30
2023-01-30T18:57:38.301Z,12.36
2023-01-30T19:00:07.329Z,12.37
2023-01-30T19:02:35.312Z,12.44
2023-01-30T19:05:03.498Z,12.46
2023-01-30T19:07:31.460Z,12.52
2023-01-30T19:10:00.857Z,12.57
2023-01-30T19:12:46.174Z,12.59
2023-01-30T19:15:14.206Z,12.62
2023-01-30T19:17:42.088Z,12.63
2023-01-30T19:20:12.125Z,12.60
2023-01-30T19:22:40.471Z,12.66
2023-01-30T19:25:10.572Z,12.69
2023-01-30T19:27:38.741Z,12.69
2023-01-30T19:30:08.130Z,12.76
2023-01-30T19:32:36.178Z,12.79
2023-01-30T19:35:04.208Z,12.81
2023-01-30T19:37:32.194Z,12.83
2023-01-30T19:40:00.221Z,12.86
2023-01-30T19:42:29.580Z,12.87
2023-01-30T19:44:57.589Z,12.86
2023-01-30T19:47:25.558Z,12.85
2023-01-30T19:49:53.978Z,12.86
2023-01-30T19:52:22.101Z,12.82
2023-01-30T19:54:50.014Z,12.83
2023-01-30T19:57:18.062Z,12.86
2023-01-30T19:59:47.410Z,12.79
2023-01-30T20:02:15.451Z,12.82
2023-01-30T20:04:43.483Z,12.81
2023-01-30T20:07:11.477Z,12.80
2023-01-30T20:09:39.461Z,12.78
2023-01-30T20:12:08.014Z,12.77
2023-01-30T20:14:35.947Z,12.79
2023-01-30T20:17:05.308Z,12.74
2023-01-30T20:19:33.263Z,12.73
2023-01-30T20:22:06.706Z,12.70
2023-01-30T20:24:34.760Z,12.69
2023-01-30T20:27:03.987Z,12.66
2023-01-30T20:29:32.050Z,12.69
2023-01-30T20:32:00.025Z,12.67
2023-01-30T20:34:29.747Z,12.71
2023-01-30T20:36:59.875Z,12.73
2023-01-30T20:39:27.847Z,12.71
2023-01-30T20:41:55.794Z,12.67
2023-01-30T20:44:24.304Z,12.65
2023-01-30T20:46:52.468Z,12.60
2023-01-30T20:49:23.672Z,12.55
2023-01-30T20:51:53.578Z,12.49
2023-01-30T20:54:22.611Z,12.41
2023-01-30T20:56:52.028Z,12.40
2023-01-30T20:59:20.962Z,12.34
2023-01-30T21:01:49.000Z,12.29
2023-01-30T21:04:17.538Z,12.30
2023-01-30T21:06:47.023Z,12.27
2023-01-30T21:09:17.824Z,12.25
2023-01-30T21:11:45.972Z,12.26
2023-01-30T21:14:14.003Z,12.26
2023-01-30T21:16:42.062Z,12.22
2023-01-30T21:19:13.900Z,12.24
2023-01-30T21:21:43.625Z,12.24
2023-01-30T21:24:13.377Z,12.23
2023-01-30T21:26:46.681Z,12.29
2023-01-30T21:29:15.185Z,12.28
2023-01-30T21:31:44.386Z,12.24
2023-01-30T21:34:12.924Z,12.30
2023-01-30T21:36:40.840Z,12.26
2023-01-30T21:39:26.105Z,12.25
2023-01-30T21:42:13.082Z,12.19
2023-01-30T21:44:41.442Z,12.21
2023-01-30T21:47:09.371Z,12.19
2023-01-30T21:49:37.776Z,12.22
2023-01-30T21:52:05.932Z,12.20
2023-01-30T21:54:34.039Z,12.21
2023-01-30T21:57:03.534Z,12.17
2023-01-30T21:59:31.964Z,12.19
2023-01-30T22:01:59.873Z,12.16
2023-01-30T22:04:28.084Z,12.17
2023-01-30T22:06:56.014Z,12.11
2023-01-30T22:09:24.261Z,12.08
2023-01-30T22:11:52.259Z,12.11
2023-01-30T22:14:22.011Z,12.09
2023-01-30T22:16:50.058Z,12.06
2023-01-30T22:19:18.136Z,12.06
2023-01-30T22:21:46.113Z,12.02
2023-01-30T22:24:14.128Z,11.99
2023-01-30T22:26:42.127Z,11.98
2023-01-30T22:29:10.063Z,11.93
2023-01-30T22:31:40.642Z,11.91
2023-01-30T22:34:08.995Z,11.91
2023-01-30T22:36:37.638Z,11.90
2023-01-30T22:39:05.804Z,11.85
2023-01-30T22:41:35.260Z,11.87
2023-01-30T22:44:04.160Z,11.83
2023-01-30T22:46:33.304Z,11.80
2023-01-30T22:49:02.974Z,11.78
2023-01-30T22:51:31.709Z,11.75
2023-01-30T22:54:01.073Z,11.72
2023-01-30T22:56:29.840Z,11.71
2023-01-30T22:58:58.083Z,11.68
2023-01-30T23:01:27.239Z,11.69
2023-01-30T23:03:56.347Z,11.69
2023-01-30T23:06:25.848Z,11.70
2023-01-30T23:08:54.558Z,11.75
2023-01-30T23:11:23.899Z,11.81
2023-01-30T23:13:53.564Z,11.87
2023-01-30T23:16:22.352Z,11.90
2023-01-30T23:18:58.857Z,11.93
2023-01-30T23:21:28.990Z,11.95
2023-01-30T23:23:57.943Z,12.02
2023-01-30T23:26:26.819Z,12.11
2023-01-30T23:28:56.361Z,12.19
2023-01-30T23:31:25.451Z,12.23
2023-01-30T23:33:56.739Z,12.25
2023-01-30T23:36:24.812Z,12.24
2023-01-30T23:38:55.223Z,12.30
2023-01-30T23:41:24.195Z,12.32
2023-01-30T23:43:52.341Z,12.30
2023-01-30T23:46:21.445Z,12.32
2023-01-30T23:48:50.711Z,12.35
2023-01-30T23:51:19.671Z,12.35
2023-01-30T23:53:48.053Z,12.41
2023-01-30T23:56:17.478Z,12.47
2023-01-30T23:58:45.617Z,12.54
